Electron Alley

Oops — I Never Saw It Do That Before . . . .

Archive for July 2011

Erie Effects: June, 2011 – West

leave a comment »

Advertisements

Erie Effects: June, 2011 – North

leave a comment »

Erie Effects: June, 2011 – East

leave a comment »

Erie Effects: June, 2011 Wx Log

leave a comment »

June 1

8:53 AM 77.0 °F 57.0 °F 50% 30.16 in 10.0 miles WNW 12.7 mph 23.0 mph N/A Clear

METAR KLPR 011253Z AUTO 29011G20KT 10SM CLR 25/14 A3018 RMK AO2 SLP212 T02500139

Sunrise: 5:57am; Sunset: 8:55pm; Moonrise: 5:35am; Moonset: 9:04pm; New Moon: 4:04pm; Day length: 14h 58m

June 2

8:53 AM 62.1 °F 46.0 °F 56% 30.23 in 10.0 miles North 10.4 mph – N/A Clear

METAR KLPR 021253Z AUTO 01009KT 10SM CLR 17/08 A3024 RMK AO2 SLP237 T01670078

Sunrise: 5:57am; Sunset: 8:56pm; Moonrise: 6:25am; Moonset: 9:57pm; Day length: 14h 59m

June 3

8:53 AM 59.0 °F 46.0 °F 62% 30.28 in 10.0 miles ESE 4.6 mph – N/A Clear

METAR KLPR 031253Z AUTO 12004KT 10SM CLR 15/08 A3028 RMK AO2 SLP254 T01500078

Sunrise: 5:56am; Sunset: 8:56pm; Moonrise: 7:23am; Moonset: 10:44pm; Day length: 15h 0m

June 4

8:53 AM 69.1 °F 53.1 °F 57% 30.09 in 10.0 miles SSW 10.4 mph – N/A Scattered Clouds

METAR KLPR 041253Z AUTO 20009KT 10SM SCT055 21/12 A3009 RMK AO2 SLP188 T02060117

Sunrise: 5:56am; Sunset: 8:57pm; Moonrise: 8:27am; Moonset: 11:25pm; Day length: 15h 1m

June 5

8:53 AM 73.0 °F 64.0 °F 73% 30.09 in 5.0 miles NE 3.5 mph – N/A Haze

METAR KLPR 051253Z AUTO 05003KT 5SM HZ CLR 23/18 A3010 RMK AO2 SLP187 T02280178

Sunrise: 5:56am; Sunset: 8:58pm; Moonrise: 9:34am; Moonset: none; Day length: 15h 2m

June 6

8:53 AM 72.0 °F 55.9 °F 57% 30.06 in 10.0 miles Calm Calm – N/A Clear

METAR KLPR 061253Z AUTO 00000KT 10SM CLR 22/13 A3008 RMK AO2 SLP180 T02220133

Sunrise: 5:55am; Sunset: 8:59pm; Moonrise: 10:44am; Moonset: 12:01am; Day length: 15h 3m

June 7

8:14 AM 75.2 °F 62.6 °F 65% 29.92 in 10.0 miles SW 8.1 mph – N/A Thunderstorm Partly Cloudy

SPECI KLPR 071214Z AUTO 22007KT 10SM VCTS FEW060 24/17 A2992 RMK AO2 LTG DSNT NW-E TSB08

Sunrise: 5:55am; Sunset: 8:59pm; Moonrise: 11:54am; Moonset: 12:33am; Day length: 15h 4m

June 8

8:53 AM 82.0 °F 69.1 °F 65% 29.96 in 8.0 miles WSW 9.2 mph – N/A Clear

METAR KLPR 081253Z AUTO 25008KT 8SM CLR 28/21 A2997 RMK AO2 SLP143 T02780206

Sunrise: 5:55am; Sunset: 9:00pm; Moonrise: 1:04pm; Moonset: 1:02am; First Qtr: 9:12pm; Day length: 15h 5m

June 9

8:53 AM 73.9 °F 64.9 °F 73% 29.95 in 10.0 miles WSW 4.6 mph – N/A Clear

METAR KLPR 091253Z AUTO 24004KT 10SM CLR 23/18 A2997 RMK AO2 SLP142 T02330183

Sunrise: 5:55am; Sunset: 9:00pm; Moonrise: 2:15pm; Moonset: 1:31am; Day length: 15h 6m

June 10

8:53 AM 64.0 °F 57.0 °F 78% 30.05 in 10.0 miles ENE 8.1 mph – N/A Mostly Cloudy

METAR KLPR 101253Z AUTO 07007KT 10SM BKN012 18/14 A3006 RMK AO2 SLP174 T01780139

Sunrise: 5:54am; Sunset: 9:01pm; Moonrise: 3:27pm; Moonset: 2:00am; Day length: 15h 7m

June 11

8:53 AM 69.1 °F 64.0 °F 84% 29.92 in 10.0 miles South 11.5 mph – N/A Clear

METAR KLPR 111253Z AUTO 19010KT 10SM CLR 21/18 A2993 RMK AO2 SLP131 T02060178

Sunrise: 5:54am; Sunset: 9:02pm; Moonrise: 4:41pm; Moonset: 2:32am; Day length: 15h 7m

June 12

8:19 AM 62.6 °F 57.2 °F 82% 29.96 in 10.0 miles North 11.5 mph – N/A Overcast

SPECI KLPR 121219Z AUTO 01010KT 10SM OVC010 17/14 A2996 RMK AO2 CIG 009V012

Sunrise: 5:54am; Sunset: 9:02pm; Moonrise: 5:54pm; Moonset: 3:07am; Day length: 15h 8m

June 13

8:53 AM 64.9 °F 51.1 °F 61% 30.08 in 10.0 miles North 13.8 mph – N/A Clear

METAR KLPR 131253Z AUTO 35012KT 10SM CLR 18/11 A3009 RMK AO2 SLP186 T01830106

Sunrise: 5:54am; Sunset: 9:03pm; Moonrise: 7:06pm; Moonset: 3:48am; Day length: 15h 8m

June 14

8:20 AM 60.8 °F 53.6 °F 77% 30.08 in 10.0 miles NE 13.8 mph – N/A Scattered Clouds

SPECI KLPR 141220Z AUTO 04012KT 10SM FEW014 SCT020 16/12 A3008 RMK AO2

Sunrise: 5:54am; Sunset: 9:03pm; Moonrise: 8:12pm; Moonset: 4:37am; Day length: 15h 9m

June 15

8:53 AM 62.1 °F 50.0 °F 65% 29.99 in 10.0 miles SE 11.5 mph – N/A Clear

METAR KLPR 151253Z AUTO 14010KT 10SM CLR 17/10 A2999 RMK AO2 SLP154 T01670100

Sunrise: 5:54am; Sunset: 9:03pm; Moonrise: 9:10pm; Moonset: 5:33am; Full Moon: 3:15pm; Day length: 15h 9m

June 16

8:53 AM 68.0 °F 60.1 °F 76% 29.77 in 10.0 miles SSW 8.1 mph – N/A Overcast

METAR KLPR 161253Z AUTO 20007KT 10SM FEW020 OVC049 20/16 A2979 RMK AO2 SLP081 T02000156

Sunrise: 5:54am; Sunset: 9:04pm; Moonrise: 10:00pm; Moonset: 6:36am; Day length: 15h 10m

June 17

8:53 AM 70.0 °F 61.0 °F 73% 29.90 in 10.0 miles NNW 6.9 mph – N/A Clear

METAR KLPR 171253Z AUTO 33006KT 10SM CLR 21/16 A2991 RMK AO2 SLP123 T02110161

Sunrise: 5:54am; Sunset: 9:04pm; Moonrise: 10:40pm; Moonset: 7:42am; Day length: 15h 10m

June 18

8:53 AM 71.1 °F 64.9 °F 81% 29.94 in 10.0 miles South 3.5 mph – N/A Clear

METAR KLPR 181253Z AUTO 19003KT 10SM CLR 22/18 A2996 RMK AO2 SLP139 T02170183

Sunrise: 5:54am; Sunset: 9:05pm; Moonrise: 11:14pm; Moonset: 8:49am; Day length: 15h 10m

June 19

8:53 AM 72.0 °F 62.1 °F 71% 29.84 in 10.0 miles Calm Calm – N/A Clear

METAR KLPR 191253Z AUTO 00000KT 10SM CLR 22/17 A2985 RMK AO2 SLP104 T02220167

Sunrise: 5:54am; Sunset: 9:05pm; Moonrise: 11:43pm; Moonset: 9:54am; Day length: 15h 11m

June 20

8:26 AM 66.2 °F 66.2 °F 100% 29.86 in 1.2 miles Calm Calm – N/A Overcast

SPECI KLPR 201226Z AUTO 00000KT 1 1/4SM BR OVC001 19/19 A2986 RMK AO2

Sunrise: 5:54am; Sunset: 9:05pm; Moonrise: none; Moonset: 10:56am; Day length: 15h 11m

June 21

8:44 AM 71.6 °F 66.2 °F 83% 29.88 in 8.0 miles SSE 4.6 mph – 0.19 in Rain , Thunderstorm Light Thunderstorms and Rain

SPECI KLPR 211244Z AUTO 16004KT 8SM -TSRA FEW008 BKN034 OVC041 22/19 A2988 RMK AO2 LTG DSNT N AND NW TSB39RAB28 P0019

Sunrise: 5:55am; Sunset: 9:05pm; Moonrise: 12:08am; Moonset: 11:57am; Day length: 15h 11m

June 22

8:53 AM 73.0 °F 66.9 °F 81% 29.80 in 10.0 miles SSW 10.4 mph – N/A Overcast

METAR KLPR 221253Z AUTO 21009KT 10SM FEW019 OVC026 23/19 A2982 RMK AO2 SLP090 T02280194

Sunrise: 5:55am; Sunset: 9:06pm; Moonrise: 12:32am; Moonset: 12:56pm; Day length: 15h 11m

June 23

8:53 AM 73.0 °F 63.0 °F 71% 29.68 in 10.0 miles SSW 9.2 mph 23.0 mph N/A Mostly Cloudy

METAR KLPR 231253Z AUTO 21008G20KT 10SM BKN075 BKN090 23/17 A2970 RMK AO2 SLP049 T02280172

Sunrise: 5:55am; Sunset: 9:06pm; Moonrise: 12:56am; Moonset: 1:55pm; Last Qtr: 6:49am; Day length: 15h 11m

June 24

8:53 AM 64.9 °F 63.0 °F 93% 29.67 in 10.0 miles West 13.8 mph – 0.00 in Overcast

METAR KLPR 241253Z AUTO 26012KT 10SM BKN013 OVC065 18/17 A2968 RMK AO2 RAE1158 SLP047 P0000 T01830172

Sunrise: 5:55am; Sunset: 9:06pm; Moonrise: 1:20am; Moonset: 2:53pm; Day length: 15h 11m

June 25

8:53 AM 64.0 °F 55.9 °F 75% 29.86 in 10.0 miles WNW 13.8 mph 21.9 mph N/A Mostly Cloudy

METAR KLPR 251253Z AUTO 29012G19KT 10SM BKN017 18/13 A2987 RMK AO2 SLP112 T01780133

Sunrise: 5:56am; Sunset: 9:06pm; Moonrise: 1:46am; Moonset: 3:53pm; Day length: 15h 11m

June 26

8:53 AM 66.9 °F 60.1 °F 79% 30.00 in 10.0 miles Calm Calm – N/A Clear

METAR KLPR 261253Z AUTO 00000KT 10SM CLR 19/16 A3001 RMK AO2 SLP159 T01940156

Sunrise: 5:56am; Sunset: 9:06pm; Moonrise: 2:15am; Moonset: 4:53pm; Day length: 15h 10m

June 27

8:53 AM 68.0 °F 59.0 °F 73% 30.01 in 10.0 miles SSE 6.9 mph – N/A Clear

METAR KLPR 271253Z AUTO 15006KT 10SM CLR 20/15 A3002 RMK AO2 SLP162 T02000150

Sunrise: 5:56am; Sunset: 9:06pm; Moonrise: 2:49am; Moonset: 5:54pm; Day length: 15h 10m

June 28

8:48 AM 75.2 °F 66.2 °F 73% 29.88 in 10.0 miles West 10.4 mph 19.6 mph N/A Mostly Cloudy

SPECI KLPR 281248Z AUTO 28009G17KT 10SM BKN017 BKN041 24/19 A2988 RMK AO2

Sunrise: 5:57am; Sunset: 9:06pm; Moonrise: 3:29am; Moonset: 6:53pm; Day length: 15h 10m

June 29

8:53 AM 66.9 °F 57.0 °F 70% 30.08 in 10.0 miles NW 10.4 mph – N/A Scattered Clouds

METAR KLPR 291253Z AUTO 32009KT 10SM SCT022 19/14 A3009 RMK AO2 SLP184 T01940139

Sunrise: 5:57am; Sunset: 9:06pm; Moonrise: 4:16am; Moonset: 7:48pm; Day length: 15h 9m

June 30

8:53 AM 68.0 °F 59.0 °F 73% 30.12 in 10.0 miles Calm Calm – N/A Clear

METAR KLPR 301253Z AUTO 00000KT 10SM CLR 20/15 A3013 RMK AO2 SLP198 T02000150

Sunrise: 5:58am; Sunset: 9:06pm; Moonrise: 5:11am; Moonset: 8:38pm; Day length: 15h 9m

 Weather Data from this Great Site

Erie Effects: 7/13 Stickmen in the Park Mixing Session

leave a comment »

Drums

Mackie Stereo Channel — Big Bass 1

Compressor:  Threshold @ -22.5 dB; Attack @ 12.6 ms; Gain @ 4.2 dB; Ratio @ 1.45:1; Release @ 99.3 ms; Key – In

Key Filter:  101 Hz — High Pass

EQ Band 1:  +2.3 @ 59 Hz / Q = .85; Band 2:  -2.0 dB @ 258 Hz / Q = .73; Band 3:  1.8 dB @ 3.11 kHz / Q = .57; Band 4:  +1.9 @ 11.4 kHz / Q = High Shelf

Output @ +1.5

Bass

Mackie Stereo Channel — Drum Buss Preset

Compressor:  Threshold @ -16.5 dB; Attack @ 10.4 ms; Gain @ 2 dB; Ratio @ 1.66:1; Release @ 138 ms; Key – In

Key Filter:  109 Hz — High Pass

EQ Band 1:  -4.4 @ 119 Hz / Q = Low Shelf; Band 2:  -0.1 dB @ 312 Hz / Q = .62;  Band 3:  3.4 dB @ 1.5 kHz / Q = .62; Band 4:  +0.0 @ 5.0  kHz / Q = High Shelf

Output @ -7.5

Rhodes

Mackie Stereo Compressor – Classic Compressor:  Threshold @ -17.5 dB; Attack @ 2.0 ms; Release @ 1048 ms; Ratio @ 2:1; Output @ -1.5 dB

Reverb:  Room Size @ 3; Damping @ 31%; Wet Mix @ 0%; Dry Mix @ 0%; Width @ 100%;

Rhythm Guitar

Mackie Stereo Compressor – Guitar Snap:  Threshold @ -13.5 dB; Attack @ 18.30 ms; Release @ 246 ms; Ratio @ 4:1; Output @ 0 dB

Reverb:  Room Size @ 3; Damping @ 31%; Wet Mix @ 0%; Dry Mix @ 0%; Width @ 100%;

 Telecaster Lead

Mackie Stereo Compressor – Classic Compressor:  Threshold @ -17.5 dB; Attack @ 2.0 ms; Release @ 1048 ms; Ratio @ 2:1; Output @ +3.0 dB

Stereo Output

Acuma Final Mix – Final Mix Setting:

Erie Effects: 7/12 Stickmen in the Park Recording Session

leave a comment »

Telecaster: Neck Pick-up
Set up: Mud-Seltzer
Fender Tweed Bassman: Drive @ 17%; Bass @ 5%; Mid @ 65%; Treble @ 84%; Presence @ 4%; Channel Volume @ 76%;
Cabinet Mic: SM57 on Axis @ 40%
Compressor: Threshold @ -47 dB; Gain @ 5 dB
Sine Chorus: Speed @ 3.74 Hz; Depth @ 25%; Bass @ 50%; Treble @ 79%; Mix @ 43%
Analog Delay: Time @ 267 ms; Feedback @ 50%; Modulation @ 0%; Depth @ 0%; Mix @ 27%
Reverb – Standard Spring: Dwell @ 25%; Tone @ 29%; Mix @ 25%

Erie Effects: May, 2011 – Panning

leave a comment »